Columbia-Marion County Airport


Codes: K0R0/
Name: Columbia-Marion County Airport
City: Columbia
Country: United States
Elevation: 265 ft.

Photos at Columbia-Marion County Airport


   Photos courtesy of SpottingLog. You can add your own sightings and photos by signing up for a free trial today.



No photos found.

Weather at Columbia-Marion County Airport


Time (UTC)DescriptionTempratureWindCloud coverageVisibilityPressureHumidity
16-Jun-2024 00:00Clear Sky34°C7 mph, S8%10000m1012hPa43%
16-Jun-2024 03:00Scattered Clouds29°C4 mph, S37%10000m1013hPa57%
16-Jun-2024 06:00Scattered Clouds24°C4 mph, S30%10000m1014hPa76%
16-Jun-2024 09:00Clear Sky22°C2 mph, S0%10000m1013hPa85%
16-Jun-2024 12:00Clear Sky24°C2 mph, E1%10000m1015hPa84%
16-Jun-2024 15:00Clear Sky31°C4 mph, SE0%10000m1015hPa55%
16-Jun-2024 18:00Clear Sky35°C9 mph, SE10%10000m1013hPa39%
16-Jun-2024 21:00Overcast Clouds31°C9 mph, SE100%10000m1013hPa54%
17-Jun-2024 00:00Light Rain25°C7 mph, SE100%10000m1014hPa86%
17-Jun-2024 03:00Overcast Clouds23°C4 mph, SE89%10000m1016hPa92%
17-Jun-2024 06:00Overcast Clouds22°C4 mph, SE94%10000m1015hPa93%
17-Jun-2024 09:00Light Rain22°C4 mph, SE95%10000m1015hPa98%
17-Jun-2024 12:00Light Rain22°C4 mph, SE95%10000m1016hPa97%
17-Jun-2024 15:00Light Rain23°C7 mph, SE100%10000m1017hPa93%
17-Jun-2024 18:00Light Rain23°C7 mph, SE100%10000m1016hPa88%
17-Jun-2024 21:00Light Rain23°C2 mph, E100%10000m1016hPa97%
18-Jun-2024 00:00Light Rain22°C4 mph, SE100%10000m1016hPa98%
18-Jun-2024 03:00Light Rain22°C4 mph, E100%10000m1016hPa99%
18-Jun-2024 06:00Overcast Clouds21°C4 mph, E100%10000m1015hPa98%
18-Jun-2024 09:00Overcast Clouds21°C4 mph, E100%10000m1014hPa97%
18-Jun-2024 12:00Overcast Clouds22°C7 mph, E100%10000m1015hPa95%
18-Jun-2024 15:00Light Rain23°C7 mph, E100%10000m1015hPa92%
18-Jun-2024 18:00Light Rain27°C9 mph, SE100%10000m1015hPa78%
18-Jun-2024 21:00Moderate Rain24°C2 mph, SE100%10000m1014hPa96%
19-Jun-2024 00:00Light Rain23°C4 mph, E100%10000m1015hPa95%
19-Jun-2024 03:00Overcast Clouds23°C4 mph, E100%10000m1015hPa96%
19-Jun-2024 06:00Overcast Clouds23°C4 mph, NE100%10000m1015hPa97%
19-Jun-2024 09:00Overcast Clouds22°C4 mph, E100%10000m1015hPa94%
19-Jun-2024 12:00Overcast Clouds23°C4 mph, E100%10000m1017hPa88%
19-Jun-2024 15:00Overcast Clouds27°C9 mph, E99%10000m1018hPa71%
19-Jun-2024 18:00Overcast Clouds31°C9 mph, E99%10000m1017hPa54%
19-Jun-2024 21:00Overcast Clouds32°C9 mph, E100%10000m1015hPa44%
20-Jun-2024 00:00Overcast Clouds29°C7 mph, E100%10000m1016hPa54%
20-Jun-2024 03:00Overcast Clouds23°C2 mph, E100%10000m1018hPa72%
20-Jun-2024 06:00Overcast Clouds21°C2 mph, E100%10000m1018hPa83%
20-Jun-2024 09:00Overcast Clouds21°C4 mph, NE100%10000m1018hPa85%
20-Jun-2024 12:00Overcast Clouds22°C7 mph, E100%10000m1019hPa82%
20-Jun-2024 15:00Overcast Clouds28°C9 mph, E100%10000m1019hPa54%
20-Jun-2024 18:00Overcast Clouds32°C9 mph, E100%10000m1018hPa32%
20-Jun-2024 21:00Broken Clouds33°C9 mph, E53%10000m1017hPa29%